sensor_id;sensor_type;location;lat;lon;timestamp;P1;durP1;ratioP1;P2;durP2;ratioP2
61907;SDS011;47864;52.526;19.672;2023-04-24T00:00:06;37.58;;;20.08;;
61907;SDS011;47864;52.526;19.672;2023-04-24T00:02:08;30.40;;;17.98;;
61907;SDS011;47864;52.526;19.672;2023-04-24T00:04:10;28.88;;;17.90;;
61907;SDS011;47864;52.526;19.672;2023-04-24T00:06:12;30.10;;;18.02;;
61907;SDS011;47864;52.526;19.672;2023-04-24T00:08:13;28.10;;;17.60;;
61907;SDS011;47864;52.526;19.672;2023-04-24T00:10:15;32.03;;;18.58;;
61907;SDS011;47864;52.526;19.672;2023-04-24T00:12:16;29.70;;;17.45;;
61907;SDS011;47864;52.526;19.672;2023-04-24T00:14:18;27.05;;;17.48;;
61907;SDS011;47864;52.526;19.672;2023-04-24T00:16:19;25.80;;;16.90;;
61907;SDS011;47864;52.526;19.672;2023-04-24T00:18:21;27.70;;;17.17;;
61907;SDS011;47864;52.526;19.672;2023-04-24T00:20:22;26.80;;;17.38;;
61907;SDS011;47864;52.526;19.672;2023-04-24T00:22:24;28.13;;;17.48;;
61907;SDS011;47864;52.526;19.672;2023-04-24T00:24:26;29.40;;;17.35;;
61907;SDS011;47864;52.526;19.672;2023-04-24T00:26:28;29.08;;;17.67;;
61907;SDS011;47864;52.526;19.672;2023-04-24T00:28:29;35.67;;;17.23;;
61907;SDS011;47864;52.526;19.672;2023-04-24T00:30:31;27.35;;;17.25;;
61907;SDS011;47864;52.526;19.672;2023-04-24T00:32:32;26.75;;;18.42;;
61907;SDS011;47864;52.526;19.672;2023-04-24T00:34:34;27.00;;;17.77;;
61907;SDS011;47864;52.526;19.672;2023-04-24T00:36:35;32.97;;;18.95;;
61907;SDS011;47864;52.526;19.672;2023-04-24T00:38:37;28.50;;;17.67;;
61907;SDS011;47864;52.526;19.672;2023-04-24T00:40:38;30.75;;;18.33;;
61907;SDS011;47864;52.526;19.672;2023-04-24T00:42:40;30.35;;;18.05;;
61907;SDS011;47864;52.526;19.672;2023-04-24T00:44:42;27.98;;;16.80;;
61907;SDS011;47864;52.526;19.672;2023-04-24T00:46:44;30.38;;;17.58;;
61907;SDS011;47864;52.526;19.672;2023-04-24T00:48:45;30.27;;;17.85;;
61907;SDS011;47864;52.526;19.672;2023-04-24T00:50:47;30.23;;;18.25;;
61907;SDS011;47864;52.526;19.672;2023-04-24T00:52:48;26.98;;;17.73;;
61907;SDS011;47864;52.526;19.672;2023-04-24T00:54:50;28.02;;;17.73;;
61907;SDS011;47864;52.526;19.672;2023-04-24T00:56:52;31.80;;;18.23;;
61907;SDS011;47864;52.526;19.672;2023-04-24T00:58:53;28.08;;;17.10;;
61907;SDS011;47864;52.526;19.672;2023-04-24T01:00:55;28.58;;;17.55;;
61907;SDS011;47864;52.526;19.672;2023-04-24T01:02:57;28.50;;;17.60;;
61907;SDS011;47864;52.526;19.672;2023-04-24T01:05:02;31.30;;;18.42;;
61907;SDS011;47864;52.526;19.672;2023-04-24T01:07:04;29.50;;;18.33;;
61907;SDS011;47864;52.526;19.672;2023-04-24T01:09:06;30.77;;;17.27;;
61907;SDS011;47864;52.526;19.672;2023-04-24T01:11:08;31.92;;;18.20;;
61907;SDS011;47864;52.526;19.672;2023-04-24T01:15:13;27.20;;;17.73;;
61907;SDS011;47864;52.526;19.672;2023-04-24T01:17:15;33.65;;;19.33;;
61907;SDS011;47864;52.526;19.672;2023-04-24T01:19:16;37.72;;;19.42;;
61907;SDS011;47864;52.526;19.672;2023-04-24T01:21:19;45.88;;;22.67;;
61907;SDS011;47864;52.526;19.672;2023-04-24T01:23:22;32.15;;;19.15;;
61907;SDS011;47864;52.526;19.672;2023-04-24T01:25:24;27.80;;;17.30;;
61907;SDS011;47864;52.526;19.672;2023-04-24T01:27:28;29.20;;;17.88;;
61907;SDS011;47864;52.526;19.672;2023-04-24T01:29:29;26.48;;;16.70;;
61907;SDS011;47864;52.526;19.672;2023-04-24T01:31:31;27.30;;;17.10;;
61907;SDS011;47864;52.526;19.672;2023-04-24T01:33:33;32.85;;;18.08;;
61907;SDS011;47864;52.526;19.672;2023-04-24T01:35:34;26.45;;;16.85;;
61907;SDS011;47864;52.526;19.672;2023-04-24T01:37:36;25.00;;;17.38;;
61907;SDS011;47864;52.526;19.672;2023-04-24T01:39:38;27.58;;;16.85;;
61907;SDS011;47864;52.526;19.672;2023-04-24T01:41:40;26.40;;;17.58;;
61907;SDS011;47864;52.526;19.672;2023-04-24T01:43:41;29.17;;;17.25;;
61907;SDS011;47864;52.526;19.672;2023-04-24T01:45:43;26.98;;;17.80;;
61907;SDS011;47864;52.526;19.672;2023-04-24T01:47:45;28.20;;;17.40;;
61907;SDS011;47864;52.526;19.672;2023-04-24T01:49:46;25.48;;;17.20;;
61907;SDS011;47864;52.526;19.672;2023-04-24T01:51:49;26.73;;;17.17;;
61907;SDS011;47864;52.526;19.672;2023-04-24T01:53:50;29.08;;;17.00;;
61907;SDS011;47864;52.526;19.672;2023-04-24T01:55:52;27.83;;;15.95;;
61907;SDS011;47864;52.526;19.672;2023-04-24T01:57:54;25.60;;;16.98;;
61907;SDS011;47864;52.526;19.672;2023-04-24T01:59:56;30.42;;;18.30;;
61907;SDS011;47864;52.526;19.672;2023-04-24T02:01:58;26.67;;;18.30;;
61907;SDS011;47864;52.526;19.672;2023-04-24T02:04:00;31.40;;;18.25;;
61907;SDS011;47864;52.526;19.672;2023-04-24T02:06:01;26.65;;;17.52;;
61907;SDS011;47864;52.526;19.672;2023-04-24T02:08:03;29.25;;;17.10;;
61907;SDS011;47864;52.526;19.672;2023-04-24T02:10:04;27.63;;;16.67;;
61907;SDS011;47864;52.526;19.672;2023-04-24T02:12:06;28.52;;;18.17;;
61907;SDS011;47864;52.526;19.672;2023-04-24T02:14:08;25.77;;;17.10;;
61907;SDS011;47864;52.526;19.672;2023-04-24T02:16:09;31.40;;;17.13;;
61907;SDS011;47864;52.526;19.672;2023-04-24T02:18:11;31.20;;;17.80;;
61907;SDS011;47864;52.526;19.672;2023-04-24T02:20:12;27.77;;;16.55;;
61907;SDS011;47864;52.526;19.672;2023-04-24T02:22:14;27.15;;;17.25;;
61907;SDS011;47864;52.526;19.672;2023-04-24T02:24:15;25.88;;;16.98;;
61907;SDS011;47864;52.526;19.672;2023-04-24T02:26:17;25.80;;;16.58;;
61907;SDS011;47864;52.526;19.672;2023-04-24T02:28:19;28.38;;;17.10;;
61907;SDS011;47864;52.526;19.672;2023-04-24T02:30:20;26.40;;;16.63;;
61907;SDS011;47864;52.526;19.672;2023-04-24T02:32:22;28.23;;;17.52;;
61907;SDS011;47864;52.526;19.672;2023-04-24T02:34:23;26.08;;;16.60;;
61907;SDS011;47864;52.526;19.672;2023-04-24T02:36:25;26.02;;;16.10;;
61907;SDS011;47864;52.526;19.672;2023-04-24T02:38:26;25.42;;;16.52;;
61907;SDS011;47864;52.526;19.672;2023-04-24T02:40:28;26.05;;;15.73;;
61907;SDS011;47864;52.526;19.672;2023-04-24T02:42:30;27.10;;;16.08;;
61907;SDS011;47864;52.526;19.672;2023-04-24T02:44:35;27.13;;;17.10;;
61907;SDS011;47864;52.526;19.672;2023-04-24T02:46:36;25.38;;;16.42;;
61907;SDS011;47864;52.526;19.672;2023-04-24T02:48:38;25.25;;;16.20;;
61907;SDS011;47864;52.526;19.672;2023-04-24T02:50:39;22.80;;;16.83;;
61907;SDS011;47864;52.526;19.672;2023-04-24T02:52:41;27.08;;;16.85;;
61907;SDS011;47864;52.526;19.672;2023-04-24T02:54:42;26.40;;;17.00;;
61907;SDS011;47864;52.526;19.672;2023-04-24T02:56:44;24.33;;;17.58;;
61907;SDS011;47864;52.526;19.672;2023-04-24T02:58:46;26.00;;;16.17;;
61907;SDS011;47864;52.526;19.672;2023-04-24T03:00:47;25.35;;;16.25;;
61907;SDS011;47864;52.526;19.672;2023-04-24T03:02:49;23.83;;;16.00;;
61907;SDS011;47864;52.526;19.672;2023-04-24T03:04:51;26.20;;;16.58;;
61907;SDS011;47864;52.526;19.672;2023-04-24T03:06:52;33.03;;;16.58;;
61907;SDS011;47864;52.526;19.672;2023-04-24T03:08:54;24.52;;;15.55;;
61907;SDS011;47864;52.526;19.672;2023-04-24T03:10:55;24.83;;;16.38;;
61907;SDS011;47864;52.526;19.672;2023-04-24T03:12:57;27.38;;;16.75;;
61907;SDS011;47864;52.526;19.672;2023-04-24T03:14:58;26.42;;;16.55;;
61907;SDS011;47864;52.526;19.672;2023-04-24T03:17:00;24.40;;;16.15;;
61907;SDS011;47864;52.526;19.672;2023-04-24T03:19:01;24.90;;;16.10;;
61907;SDS011;47864;52.526;19.672;2023-04-24T03:21:03;24.33;;;15.52;;
61907;SDS011;47864;52.526;19.672;2023-04-24T03:23:04;27.52;;;15.48;;
61907;SDS011;47864;52.526;19.672;2023-04-24T03:25:06;23.80;;;16.05;;
61907;SDS011;47864;52.526;19.672;2023-04-24T03:27:07;23.75;;;16.08;;
61907;SDS011;47864;52.526;19.672;2023-04-24T03:29:09;29.25;;;16.40;;
61907;SDS011;47864;52.526;19.672;2023-04-24T03:31:10;28.45;;;16.05;;
61907;SDS011;47864;52.526;19.672;2023-04-24T03:33:12;21.70;;;15.00;;
61907;SDS011;47864;52.526;19.672;2023-04-24T03:35:13;24.75;;;16.42;;
61907;SDS011;47864;52.526;19.672;2023-04-24T03:37:15;23.85;;;15.25;;
61907;SDS011;47864;52.526;19.672;2023-04-24T03:39:17;24.35;;;16.10;;
61907;SDS011;47864;52.526;19.672;2023-04-24T03:41:19;25.38;;;16.13;;
61907;SDS011;47864;52.526;19.672;2023-04-24T03:43:20;26.80;;;15.73;;
61907;SDS011;47864;52.526;19.672;2023-04-24T03:45:22;23.20;;;15.80;;
61907;SDS011;47864;52.526;19.672;2023-04-24T03:47:23;24.13;;;16.17;;
61907;SDS011;47864;52.526;19.672;2023-04-24T03:49:25;25.05;;;15.40;;
61907;SDS011;47864;52.526;19.672;2023-04-24T03:51:26;25.05;;;16.00;;
61907;SDS011;47864;52.526;19.672;2023-04-24T03:53:28;27.63;;;17.13;;
61907;SDS011;47864;52.526;19.672;2023-04-24T03:55:29;30.90;;;17.40;;
61907;SDS011;47864;52.526;19.672;2023-04-24T03:57:31;34.38;;;18.15;;
61907;SDS011;47864;52.526;19.672;2023-04-24T03:59:33;32.95;;;19.83;;
61907;SDS011;47864;52.526;19.672;2023-04-24T04:01:34;33.92;;;19.35;;
61907;SDS011;47864;52.526;19.672;2023-04-24T04:03:36;25.80;;;17.70;;
61907;SDS011;47864;52.526;19.672;2023-04-24T04:05:38;28.73;;;19.95;;
61907;SDS011;47864;52.526;19.672;2023-04-24T04:07:39;32.10;;;21.08;;
61907;SDS011;47864;52.526;19.672;2023-04-24T04:09:41;31.42;;;20.65;;
61907;SDS011;47864;52.526;19.672;2023-04-24T04:11:43;49.15;;;29.58;;
61907;SDS011;47864;52.526;19.672;2023-04-24T04:13:44;35.92;;;23.88;;
61907;SDS011;47864;52.526;19.672;2023-04-24T04:15:46;39.78;;;24.80;;
61907;SDS011;47864;52.526;19.672;2023-04-24T04:17:47;32.67;;;22.50;;
61907;SDS011;47864;52.526;19.672;2023-04-24T04:19:49;29.38;;;20.45;;
61907;SDS011;47864;52.526;19.672;2023-04-24T04:21:50;29.77;;;20.55;;
61907;SDS011;47864;52.526;19.672;2023-04-24T04:23:52;36.70;;;23.55;;
61907;SDS011;47864;52.526;19.672;2023-04-24T04:25:53;43.22;;;27.25;;
61907;SDS011;47864;52.526;19.672;2023-04-24T04:27:55;40.97;;;25.55;;
61907;SDS011;47864;52.526;19.672;2023-04-24T04:29:56;38.72;;;23.35;;
61907;SDS011;47864;52.526;19.672;2023-04-24T04:31:58;37.35;;;21.10;;
61907;SDS011;47864;52.526;19.672;2023-04-24T04:34:01;30.23;;;18.38;;
61907;SDS011;47864;52.526;19.672;2023-04-24T04:36:02;31.55;;;18.42;;
61907;SDS011;47864;52.526;19.672;2023-04-24T04:38:04;30.83;;;18.20;;
61907;SDS011;47864;52.526;19.672;2023-04-24T04:40:05;27.17;;;18.25;;
61907;SDS011;47864;52.526;19.672;2023-04-24T04:42:08;35.58;;;18.98;;
61907;SDS011;47864;52.526;19.672;2023-04-24T04:44:09;27.65;;;18.60;;
61907;SDS011;47864;52.526;19.672;2023-04-24T04:46:11;25.02;;;16.73;;
61907;SDS011;47864;52.526;19.672;2023-04-24T04:48:13;26.52;;;16.95;;
61907;SDS011;47864;52.526;19.672;2023-04-24T04:50:14;26.20;;;16.60;;
61907;SDS011;47864;52.526;19.672;2023-04-24T04:52:16;24.85;;;15.15;;
61907;SDS011;47864;52.526;19.672;2023-04-24T04:54:18;26.65;;;16.67;;
61907;SDS011;47864;52.526;19.672;2023-04-24T04:56:19;21.90;;;15.57;;
61907;SDS011;47864;52.526;19.672;2023-04-24T04:58:21;24.40;;;16.17;;
61907;SDS011;47864;52.526;19.672;2023-04-24T05:00:23;23.08;;;14.68;;
61907;SDS011;47864;52.526;19.672;2023-04-24T05:02:24;22.67;;;15.25;;
61907;SDS011;47864;52.526;19.672;2023-04-24T05:04:26;19.30;;;13.90;;
61907;SDS011;47864;52.526;19.672;2023-04-24T05:06:28;23.90;;;14.05;;
61907;SDS011;47864;52.526;19.672;2023-04-24T05:08:29;21.23;;;12.50;;
61907;SDS011;47864;52.526;19.672;2023-04-24T05:10:31;19.75;;;13.60;;
61907;SDS011;47864;52.526;19.672;2023-04-24T05:12:33;22.70;;;13.45;;
61907;SDS011;47864;52.526;19.672;2023-04-24T05:14:34;18.45;;;12.38;;
61907;SDS011;47864;52.526;19.672;2023-04-24T05:16:35;17.92;;;12.38;;
61907;SDS011;47864;52.526;19.672;2023-04-24T05:18:37;22.02;;;12.95;;
61907;SDS011;47864;52.526;19.672;2023-04-24T05:20:39;18.70;;;12.73;;
61907;SDS011;47864;52.526;19.672;2023-04-24T05:22:40;20.50;;;12.02;;
61907;SDS011;47864;52.526;19.672;2023-04-24T05:24:42;18.02;;;12.50;;
61907;SDS011;47864;52.526;19.672;2023-04-24T05:26:43;20.10;;;12.70;;
61907;SDS011;47864;52.526;19.672;2023-04-24T05:28:45;23.17;;;13.00;;
61907;SDS011;47864;52.526;19.672;2023-04-24T05:30:46;20.67;;;13.20;;
61907;SDS011;47864;52.526;19.672;2023-04-24T05:32:47;18.60;;;12.65;;
61907;SDS011;47864;52.526;19.672;2023-04-24T05:34:49;20.52;;;12.93;;
61907;SDS011;47864;52.526;19.672;2023-04-24T05:36:50;19.23;;;12.93;;
61907;SDS011;47864;52.526;19.672;2023-04-24T05:38:52;18.55;;;12.82;;
61907;SDS011;47864;52.526;19.672;2023-04-24T05:40:54;17.90;;;11.50;;
61907;SDS011;47864;52.526;19.672;2023-04-24T05:42:55;16.63;;;12.30;;
61907;SDS011;47864;52.526;19.672;2023-04-24T05:44:57;18.77;;;12.43;;
61907;SDS011;47864;52.526;19.672;2023-04-24T05:46:58;16.48;;;12.30;;
61907;SDS011;47864;52.526;19.672;2023-04-24T05:49:00;19.05;;;12.52;;
61907;SDS011;47864;52.526;19.672;2023-04-24T05:51:01;22.33;;;12.25;;
61907;SDS011;47864;52.526;19.672;2023-04-24T05:53:03;16.83;;;11.27;;
61907;SDS011;47864;52.526;19.672;2023-04-24T05:55:04;18.45;;;11.43;;
61907;SDS011;47864;52.526;19.672;2023-04-24T05:57:06;18.45;;;10.75;;
61907;SDS011;47864;52.526;19.672;2023-04-24T05:59:08;19.75;;;11.15;;
61907;SDS011;47864;52.526;19.672;2023-04-24T06:01:09;18.08;;;10.85;;
61907;SDS011;47864;52.526;19.672;2023-04-24T06:03:11;15.07;;;10.30;;
61907;SDS011;47864;52.526;19.672;2023-04-24T06:05:12;21.33;;;10.57;;
61907;SDS011;47864;52.526;19.672;2023-04-24T06:07:14;20.33;;;11.25;;
61907;SDS011;47864;52.526;19.672;2023-04-24T06:09:16;16.02;;;10.82;;
61907;SDS011;47864;52.526;19.672;2023-04-24T06:11:17;15.60;;;10.07;;
61907;SDS011;47864;52.526;19.672;2023-04-24T06:13:19;17.27;;;10.70;;
61907;SDS011;47864;52.526;19.672;2023-04-24T06:15:20;18.25;;;10.90;;
61907;SDS011;47864;52.526;19.672;2023-04-24T06:17:22;16.10;;;10.75;;
61907;SDS011;47864;52.526;19.672;2023-04-24T06:19:25;16.63;;;11.63;;
61907;SDS011;47864;52.526;19.672;2023-04-24T06:21:26;15.88;;;10.52;;
61907;SDS011;47864;52.526;19.672;2023-04-24T06:23:28;18.05;;;9.88;;
61907;SDS011;47864;52.526;19.672;2023-04-24T06:25:29;16.35;;;10.63;;
61907;SDS011;47864;52.526;19.672;2023-04-24T06:27:31;16.75;;;9.75;;
61907;SDS011;47864;52.526;19.672;2023-04-24T06:29:33;14.73;;;9.93;;
61907;SDS011;47864;52.526;19.672;2023-04-24T06:31:34;14.60;;;9.68;;
61907;SDS011;47864;52.526;19.672;2023-04-24T06:33:36;13.27;;;9.80;;
61907;SDS011;47864;52.526;19.672;2023-04-24T06:35:37;13.60;;;9.13;;
61907;SDS011;47864;52.526;19.672;2023-04-24T06:37:39;14.85;;;9.38;;
61907;SDS011;47864;52.526;19.672;2023-04-24T06:39:41;12.85;;;8.35;;
61907;SDS011;47864;52.526;19.672;2023-04-24T06:41:42;13.98;;;8.15;;
61907;SDS011;47864;52.526;19.672;2023-04-24T06:43:44;12.75;;;8.57;;
61907;SDS011;47864;52.526;19.672;2023-04-24T06:45:45;10.68;;;7.22;;
61907;SDS011;47864;52.526;19.672;2023-04-24T06:47:47;12.63;;;7.97;;
61907;SDS011;47864;52.526;19.672;2023-04-24T06:49:49;9.52;;;6.00;;
61907;SDS011;47864;52.526;19.672;2023-04-24T06:51:50;10.68;;;5.60;;
61907;SDS011;47864;52.526;19.672;2023-04-24T06:53:52;7.90;;;5.13;;
61907;SDS011;47864;52.526;19.672;2023-04-24T06:55:54;10.95;;;5.18;;
61907;SDS011;47864;52.526;19.672;2023-04-24T06:57:56;29.02;;;14.02;;
61907;SDS011;47864;52.526;19.672;2023-04-24T06:59:58;21.38;;;11.77;;
61907;SDS011;47864;52.526;19.672;2023-04-24T07:02:00;11.95;;;6.95;;
61907;SDS011;47864;52.526;19.672;2023-04-24T07:04:01;14.32;;;8.25;;
61907;SDS011;47864;52.526;19.672;2023-04-24T07:06:03;7.78;;;4.75;;
61907;SDS011;47864;52.526;19.672;2023-04-24T07:08:05;6.77;;;4.60;;
61907;SDS011;47864;52.526;19.672;2023-04-24T07:10:07;9.85;;;5.20;;
61907;SDS011;47864;52.526;19.672;2023-04-24T07:12:09;10.15;;;5.70;;
61907;SDS011;47864;52.526;19.672;2023-04-24T07:14:14;8.63;;;4.15;;
61907;SDS011;47864;52.526;19.672;2023-04-24T07:16:15;6.53;;;4.50;;
61907;SDS011;47864;52.526;19.672;2023-04-24T07:18:17;6.45;;;4.07;;
61907;SDS011;47864;52.526;19.672;2023-04-24T07:20:19;7.38;;;4.20;;
61907;SDS011;47864;52.526;19.672;2023-04-24T07:22:20;7.93;;;4.60;;
61907;SDS011;47864;52.526;19.672;2023-04-24T07:24:22;8.02;;;4.20;;
61907;SDS011;47864;52.526;19.672;2023-04-24T07:26:27;8.52;;;4.30;;
61907;SDS011;47864;52.526;19.672;2023-04-24T07:28:32;6.82;;;4.53;;
61907;SDS011;47864;52.526;19.672;2023-04-24T07:30:34;10.05;;;4.18;;
61907;SDS011;47864;52.526;19.672;2023-04-24T07:32:35;6.38;;;3.88;;
61907;SDS011;47864;52.526;19.672;2023-04-24T07:34:37;7.13;;;3.33;;
61907;SDS011;47864;52.526;19.672;2023-04-24T07:36:38;6.90;;;3.30;;
61907;SDS011;47864;52.526;19.672;2023-04-24T07:38:40;9.40;;;3.35;;
61907;SDS011;47864;52.526;19.672;2023-04-24T07:40:41;5.80;;;3.40;;
61907;SDS011;47864;52.526;19.672;2023-04-24T07:42:43;10.43;;;3.70;;
61907;SDS011;47864;52.526;19.672;2023-04-24T07:44:44;5.53;;;3.03;;
61907;SDS011;47864;52.526;19.672;2023-04-24T07:46:46;7.97;;;3.67;;
61907;SDS011;47864;52.526;19.672;2023-04-24T07:48:48;5.82;;;3.47;;
61907;SDS011;47864;52.526;19.672;2023-04-24T07:51:02;6.22;;;3.17;;
61907;SDS011;47864;52.526;19.672;2023-04-24T07:53:03;4.15;;;2.80;;
61907;SDS011;47864;52.526;19.672;2023-04-24T07:55:05;11.20;;;3.80;;
61907;SDS011;47864;52.526;19.672;2023-04-24T07:57:07;7.47;;;3.53;;
61907;SDS011;47864;52.526;19.672;2023-04-24T07:59:08;8.30;;;3.42;;
61907;SDS011;47864;52.526;19.672;2023-04-24T08:01:11;7.30;;;3.53;;
61907;SDS011;47864;52.526;19.672;2023-04-24T08:03:14;7.78;;;3.63;;
61907;SDS011;47864;52.526;19.672;2023-04-24T08:05:15;6.68;;;3.70;;
61907;SDS011;47864;52.526;19.672;2023-04-24T08:07:17;6.72;;;3.80;;
61907;SDS011;47864;52.526;19.672;2023-04-24T08:09:19;9.05;;;3.42;;
61907;SDS011;47864;52.526;19.672;2023-04-24T08:11:20;6.90;;;3.63;;
61907;SDS011;47864;52.526;19.672;2023-04-24T08:13:25;6.18;;;3.85;;
61907;SDS011;47864;52.526;19.672;2023-04-24T08:15:27;6.05;;;3.75;;
61907;SDS011;47864;52.526;19.672;2023-04-24T08:17:28;8.10;;;3.60;;
61907;SDS011;47864;52.526;19.672;2023-04-24T08:19:34;5.80;;;3.20;;
61907;SDS011;47864;52.526;19.672;2023-04-24T08:21:35;6.93;;;3.65;;
61907;SDS011;47864;52.526;19.672;2023-04-24T08:23:36;10.13;;;3.60;;
61907;SDS011;47864;52.526;19.672;2023-04-24T08:25:38;10.48;;;4.03;;
61907;SDS011;47864;52.526;19.672;2023-04-24T08:27:40;8.98;;;3.90;;
61907;SDS011;47864;52.526;19.672;2023-04-24T08:29:41;8.30;;;3.50;;
61907;SDS011;47864;52.526;19.672;2023-04-24T08:31:43;7.43;;;3.90;;
61907;SDS011;47864;52.526;19.672;2023-04-24T08:33:45;9.52;;;4.03;;
61907;SDS011;47864;52.526;19.672;2023-04-24T08:35:46;6.97;;;3.95;;
61907;SDS011;47864;52.526;19.672;2023-04-24T08:37:48;6.07;;;3.78;;
61907;SDS011;47864;52.526;19.672;2023-04-24T08:39:49;9.18;;;3.83;;
61907;SDS011;47864;52.526;19.672;2023-04-24T08:41:51;6.93;;;3.72;;
61907;SDS011;47864;52.526;19.672;2023-04-24T08:43:54;11.00;;;4.03;;
61907;SDS011;47864;52.526;19.672;2023-04-24T08:45:56;9.68;;;4.25;;
61907;SDS011;47864;52.526;19.672;2023-04-24T08:47:59;6.93;;;3.70;;
61907;SDS011;47864;52.526;19.672;2023-04-24T08:50:04;6.53;;;3.70;;
61907;SDS011;47864;52.526;19.672;2023-04-24T08:52:07;9.90;;;4.15;;
61907;SDS011;47864;52.526;19.672;2023-04-24T08:54:09;7.75;;;4.00;;
61907;SDS011;47864;52.526;19.672;2023-04-24T08:56:11;5.80;;;3.72;;
61907;SDS011;47864;52.526;19.672;2023-04-24T08:58:12;7.07;;;3.95;;
61907;SDS011;47864;52.526;19.672;2023-04-24T09:00:14;7.32;;;4.10;;
61907;SDS011;47864;52.526;19.672;2023-04-24T09:02:16;8.38;;;3.85;;
61907;SDS011;47864;52.526;19.672;2023-04-24T09:04:19;7.80;;;3.95;;
61907;SDS011;47864;52.526;19.672;2023-04-24T09:06:23;7.75;;;4.05;;
61907;SDS011;47864;52.526;19.672;2023-04-24T09:08:25;7.85;;;4.20;;
61907;SDS011;47864;52.526;19.672;2023-04-24T09:10:29;21.27;;;4.43;;
61907;SDS011;47864;52.526;19.672;2023-04-24T09:12:30;10.38;;;3.65;;
61907;SDS011;47864;52.526;19.672;2023-04-24T09:14:32;5.20;;;3.70;;
61907;SDS011;47864;52.526;19.672;2023-04-24T09:16:34;8.55;;;4.18;;
61907;SDS011;47864;52.526;19.672;2023-04-24T09:18:37;6.88;;;3.78;;
61907;SDS011;47864;52.526;19.672;2023-04-24T09:21:24;8.07;;;3.90;;
61907;SDS011;47864;52.526;19.672;2023-04-24T09:23:10;6.40;;;3.90;;
61907;SDS011;47864;52.526;19.672;2023-04-24T09:25:11;7.45;;;4.43;;
61907;SDS011;47864;52.526;19.672;2023-04-24T09:27:13;6.70;;;4.30;;
61907;SDS011;47864;52.526;19.672;2023-04-24T09:29:18;9.77;;;4.38;;
61907;SDS011;47864;52.526;19.672;2023-04-24T09:31:19;6.00;;;3.88;;
61907;SDS011;47864;52.526;19.672;2023-04-24T09:33:22;10.10;;;4.00;;
61907;SDS011;47864;52.526;19.672;2023-04-24T09:35:24;6.45;;;3.80;;
61907;SDS011;47864;52.526;19.672;2023-04-24T09:37:29;5.85;;;3.22;;
61907;SDS011;47864;52.526;19.672;2023-04-24T09:39:31;5.47;;;3.70;;
61907;SDS011;47864;52.526;19.672;2023-04-24T09:41:32;5.22;;;3.60;;
61907;SDS011;47864;52.526;19.672;2023-04-24T09:43:34;7.90;;;4.18;;
61907;SDS011;47864;52.526;19.672;2023-04-24T09:45:37;5.47;;;3.73;;
61907;SDS011;47864;52.526;19.672;2023-04-24T09:47:40;8.23;;;3.72;;
61907;SDS011;47864;52.526;19.672;2023-04-24T09:49:42;5.55;;;3.80;;
61907;SDS011;47864;52.526;19.672;2023-04-24T09:51:44;12.65;;;3.72;;
61907;SDS011;47864;52.526;19.672;2023-04-24T09:53:46;7.32;;;3.97;;
61907;SDS011;47864;52.526;19.672;2023-04-24T09:55:48;8.88;;;3.70;;
61907;SDS011;47864;52.526;19.672;2023-04-24T09:57:50;7.75;;;3.45;;
61907;SDS011;47864;52.526;19.672;2023-04-24T09:59:56;9.77;;;4.32;;
61907;SDS011;47864;52.526;19.672;2023-04-24T10:01:59;7.47;;;4.03;;
61907;SDS011;47864;52.526;19.672;2023-04-24T10:04:01;6.63;;;3.43;;
61907;SDS011;47864;52.526;19.672;2023-04-24T10:06:03;8.75;;;3.75;;
61907;SDS011;47864;52.526;19.672;2023-04-24T10:08:06;8.90;;;3.90;;
61907;SDS011;47864;52.526;19.672;2023-04-24T10:10:11;8.18;;;3.63;;
61907;SDS011;47864;52.526;19.672;2023-04-24T10:12:13;6.63;;;3.42;;
61907;SDS011;47864;52.526;19.672;2023-04-24T10:14:16;7.28;;;4.30;;
61907;SDS011;47864;52.526;19.672;2023-04-24T10:16:20;7.50;;;4.00;;
61907;SDS011;47864;52.526;19.672;2023-04-24T10:18:23;7.40;;;4.25;;
61907;SDS011;47864;52.526;19.672;2023-04-24T10:20:27;7.78;;;4.82;;
61907;SDS011;47864;52.526;19.672;2023-04-24T10:22:30;6.80;;;4.10;;
61907;SDS011;47864;52.526;19.672;2023-04-24T10:24:33;10.07;;;4.27;;
61907;SDS011;47864;52.526;19.672;2023-04-24T10:26:34;6.38;;;3.72;;
61907;SDS011;47864;52.526;19.672;2023-04-24T10:28:36;6.43;;;3.80;;
61907;SDS011;47864;52.526;19.672;2023-04-24T10:30:38;6.60;;;4.03;;
61907;SDS011;47864;52.526;19.672;2023-04-24T10:32:40;8.90;;;4.30;;
61907;SDS011;47864;52.526;19.672;2023-04-24T10:34:42;5.72;;;3.92;;
61907;SDS011;47864;52.526;19.672;2023-04-24T10:36:46;5.78;;;3.60;;
61907;SDS011;47864;52.526;19.672;2023-04-24T10:38:51;8.88;;;3.95;;
61907;SDS011;47864;52.526;19.672;2023-04-24T10:41:08;7.32;;;3.92;;
61907;SDS011;47864;52.526;19.672;2023-04-24T10:43:11;6.50;;;3.40;;
61907;SDS011;47864;52.526;19.672;2023-04-24T10:45:20;6.63;;;4.15;;
61907;SDS011;47864;52.526;19.672;2023-04-24T10:47:22;5.78;;;3.35;;
61907;SDS011;47864;52.526;19.672;2023-04-24T10:49:28;7.25;;;3.47;;
61907;SDS011;47864;52.526;19.672;2023-04-24T10:52:04;7.75;;;3.72;;
61907;SDS011;47864;52.526;19.672;2023-04-24T10:54:15;6.90;;;3.90;;
61907;SDS011;47864;52.526;19.672;2023-04-24T10:56:23;6.85;;;3.63;;
61907;SDS011;47864;52.526;19.672;2023-04-24T10:58:36;6.28;;;3.90;;
61907;SDS011;47864;52.526;19.672;2023-04-24T11:00:42;5.13;;;3.78;;
61907;SDS011;47864;52.526;19.672;2023-04-24T11:02:45;7.70;;;3.80;;
61907;SDS011;47864;52.526;19.672;2023-04-24T11:04:49;6.35;;;3.70;;
61907;SDS011;47864;52.526;19.672;2023-04-24T11:06:52;8.15;;;3.83;;
61907;SDS011;47864;52.526;19.672;2023-04-24T11:08:57;6.82;;;3.67;;
61907;SDS011;47864;52.526;19.672;2023-04-24T11:13:21;7.65;;;3.58;;
61907;SDS011;47864;52.526;19.672;2023-04-24T11:15:23;9.07;;;4.15;;
61907;SDS011;47864;52.526;19.672;2023-04-24T11:19:30;7.15;;;4.15;;
61907;SDS011;47864;52.526;19.672;2023-04-24T11:21:38;5.72;;;3.60;;
61907;SDS011;47864;52.526;19.672;2023-04-24T11:23:40;8.88;;;4.25;;
61907;SDS011;47864;52.526;19.672;2023-04-24T11:25:41;8.15;;;4.07;;
61907;SDS011;47864;52.526;19.672;2023-04-24T11:27:44;7.55;;;4.10;;
61907;SDS011;47864;52.526;19.672;2023-04-24T11:31:57;8.48;;;5.25;;
61907;SDS011;47864;52.526;19.672;2023-04-24T11:34:20;8.38;;;4.45;;
61907;SDS011;47864;52.526;19.672;2023-04-24T11:36:21;6.00;;;4.13;;
61907;SDS011;47864;52.526;19.672;2023-04-24T11:38:23;8.48;;;4.63;;
61907;SDS011;47864;52.526;19.672;2023-04-24T11:40:25;8.55;;;3.90;;
61907;SDS011;47864;52.526;19.672;2023-04-24T11:42:27;9.25;;;3.90;;
61907;SDS011;47864;52.526;19.672;2023-04-24T11:44:29;9.38;;;4.13;;
61907;SDS011;47864;52.526;19.672;2023-04-24T11:46:35;7.05;;;4.13;;
61907;SDS011;47864;52.526;19.672;2023-04-24T11:48:37;5.22;;;3.63;;
61907;SDS011;47864;52.526;19.672;2023-04-24T11:50:38;8.00;;;4.25;;
61907;SDS011;47864;52.526;19.672;2023-04-24T11:52:41;10.07;;;4.57;;
61907;SDS011;47864;52.526;19.672;2023-04-24T11:56:49;9.23;;;4.22;;
61907;SDS011;47864;52.526;19.672;2023-04-24T11:58:53;5.95;;;3.90;;
61907;SDS011;47864;52.526;19.672;2023-04-24T12:00:57;8.57;;;4.57;;
61907;SDS011;47864;52.526;19.672;2023-04-24T12:03:06;9.00;;;5.03;;